Terminal Aerodrome Forecast
Issued by NWS

Home | Current Version | Previous Version | Text Only | Print | Product List | Glossary On
Versions: 1 2 3 4 5 6 7 8 9 10 11 12 13 14 15
000
FTUS45 KGJT 201129
TAFEGE
TAF
KEGE 201129Z 2012/2112 VRB03KT P6SM FEW150
     FM202000 25010G15KT P6SM SCT110 SCT250
     FM210200 05004KT P6SM FEW110 BKN150
     FM210600 10003KT P6SM BKN200
      AMD LTD TO CLD VIS AND WIND TIL 201300=

USA.gov is the U.S. government's official web portal to all federal, state and local government web resources and services.